createdAt,value
2023-03-16T00:00:19.671Z,54.34
2023-03-16T00:04:19.372Z,46.04
2023-03-16T00:08:19.033Z,51.68
2023-03-16T00:12:18.693Z,51.71
2023-03-16T00:16:18.320Z,46.10
2023-03-16T00:20:17.963Z,59.94
2023-03-16T00:24:17.575Z,63.42
2023-03-16T00:28:17.227Z,64.45
2023-03-16T00:32:16.829Z,74.43
2023-03-16T00:36:16.466Z,76.63
2023-03-16T00:40:16.120Z,76.90
2023-03-16T00:44:15.912Z,84.68
2023-03-16T00:48:15.534Z,85.58
2023-03-16T00:52:15.189Z,82.76
2023-03-16T00:56:14.802Z,79.52
2023-03-16T01:00:14.450Z,85.38
2023-03-16T01:04:14.069Z,87.50
2023-03-16T01:08:13.706Z,94.16
2023-03-16T01:12:13.326Z,96.36
2023-03-16T01:16:12.954Z,90.87
2023-03-16T01:20:12.628Z,84.41
2023-03-16T01:24:12.212Z,97.82
2023-03-16T01:28:11.916Z,93.87
2023-03-16T01:32:11.796Z,91.06
2023-03-16T01:36:11.611Z,85.76
2023-03-16T01:40:11.360Z,85.20
2023-03-16T01:44:11.049Z,84.91
2023-03-16T01:48:10.738Z,70.51
2023-03-16T01:52:10.432Z,77.10
2023-03-16T01:56:10.152Z,63.60
2023-03-16T02:00:09.886Z,70.55
2023-03-16T02:04:09.594Z,76.75
2023-03-16T02:08:09.220Z,76.75
2023-03-16T02:12:08.916Z,74.34
2023-03-16T02:16:08.714Z,77.93
2023-03-16T02:20:08.353Z,79.50
2023-03-16T02:24:08.091Z,78.15
2023-03-16T02:28:07.805Z,88.28
2023-03-16T02:32:07.534Z,82.15
2023-03-16T02:36:07.387Z,71.37
2023-03-16T02:40:06.974Z,84.69
2023-03-16T02:44:06.730Z,69.87
2023-03-16T02:48:06.510Z,81.42
2023-03-16T02:52:06.293Z,89.80
2023-03-16T02:56:05.999Z,84.11
2023-03-16T03:00:05.698Z,87.34
2023-03-16T03:04:05.439Z,82.02
2023-03-16T03:08:05.063Z,84.89
2023-03-16T03:12:04.770Z,84.37
2023-03-16T03:16:04.501Z,88.03
2023-03-16T03:20:04.146Z,80.82
2023-03-16T03:24:03.934Z,86.19
2023-03-16T03:28:03.618Z,86.48
2023-03-16T03:32:03.269Z,73.23
2023-03-16T03:36:03.123Z,90.45
2023-03-16T03:40:02.711Z,82.65
2023-03-16T03:44:02.472Z,107.59
2023-03-16T03:48:02.156Z,110.46
2023-03-16T03:52:01.866Z,103.06
2023-03-16T03:56:01.573Z,105.36
2023-03-16T04:00:01.246Z,101.38
2023-03-16T04:04:00.961Z,101.14
2023-03-16T04:08:00.613Z,76.17
2023-03-16T04:12:00.320Z,71.74
2023-03-16T04:16:00.091Z,87.50
2023-03-16T04:19:59.701Z,76.99
2023-03-16T04:23:59.440Z,90.62
2023-03-16T04:27:59.152Z,86.79
2023-03-16T04:31:58.825Z,85.33
2023-03-16T04:35:58.568Z,91.53
2023-03-16T04:39:58.238Z,93.71
2023-03-16T04:43:57.953Z,114.33
2023-03-16T04:47:57.714Z,116.79
2023-03-16T04:51:57.544Z,122.35
2023-03-16T04:55:57.160Z,136.82
2023-03-16T04:59:56.928Z,147.57
2023-03-16T05:03:58.607Z,161.77
2023-03-16T05:07:56.380Z,158.35
2023-03-16T05:11:56.030Z,158.46
2023-03-16T05:15:55.810Z,160.08
2023-03-16T05:19:55.395Z,154.95
2023-03-16T05:23:55.103Z,140.10
2023-03-16T05:27:54.694Z,156.36
2023-03-16T05:31:54.350Z,152.35
2023-03-16T05:35:54.107Z,153.72
2023-03-16T05:39:53.711Z,152.53
2023-03-16T05:43:53.421Z,150.12
2023-03-16T05:47:53.082Z,147.51
2023-03-16T05:51:52.708Z,152.75
2023-03-16T05:55:52.398Z,171.64
2023-03-16T05:59:52.068Z,174.04
2023-03-16T06:03:51.915Z,187.53
2023-03-16T06:07:51.425Z,189.67
2023-03-16T06:11:51.046Z,193.55
2023-03-16T06:15:50.772Z,209.79
2023-03-16T06:19:50.362Z,214.44
2023-03-16T06:23:50.091Z,220.65
2023-03-16T06:27:49.872Z,225.74
2023-03-16T06:31:49.721Z,229.32
2023-03-16T06:35:49.535Z,247.12
2023-03-16T06:39:49.486Z,242.46
2023-03-16T06:43:49.491Z,249.92
2023-03-16T06:47:49.024Z,226.03
2023-03-16T06:51:49.015Z,250.00
2023-03-16T06:55:49.018Z,244.27
2023-03-16T06:59:48.982Z,249.67
2023-03-16T07:03:48.316Z,244.13
2023-03-16T07:07:47.966Z,242.24
2023-03-16T07:11:47.646Z,236.13
2023-03-16T07:15:47.480Z,236.59
2023-03-16T07:19:46.974Z,238.16
2023-03-16T07:23:46.679Z,242.10
2023-03-16T07:27:46.502Z,242.34
2023-03-16T07:31:46.135Z,247.69
2023-03-16T07:35:45.852Z,249.38
2023-03-16T07:39:47.522Z,248.41
2023-03-16T07:43:45.470Z,249.43
2023-03-16T07:47:45.529Z,242.74
2023-03-16T07:51:45.077Z,245.73
2023-03-16T07:55:45.038Z,249.16
2023-03-16T07:59:44.343Z,247.59
2023-03-16T08:03:44.053Z,249.80
2023-03-16T08:07:43.811Z,246.01
2023-03-16T08:11:43.508Z,236.18
2023-03-16T08:15:43.232Z,242.84
2023-03-16T08:19:42.884Z,227.35
2023-03-16T08:23:43.084Z,234.63
2023-03-16T08:27:42.295Z,234.73
2023-03-16T08:31:42.122Z,231.65
2023-03-16T08:35:41.691Z,222.87
2023-03-16T08:39:41.537Z,223.89
2023-03-16T08:43:41.557Z,207.20
2023-03-16T08:47:41.040Z,212.33
2023-03-16T08:51:40.739Z,217.78
2023-03-16T08:55:40.395Z,220.50
2023-03-16T08:59:40.320Z,221.18
2023-03-16T09:03:40.073Z,219.39
2023-03-16T09:07:40.052Z,198.97
2023-03-16T09:11:39.593Z,208.93
2023-03-16T09:15:39.574Z,206.53
2023-03-16T09:19:53.809Z,205.86
2023-03-16T09:23:39.765Z,207.98
2023-03-16T09:27:38.466Z,195.42
2023-03-16T09:31:38.644Z,168.84
2023-03-16T09:35:38.128Z,189.80
2023-03-16T09:39:38.063Z,157.59
2023-03-16T09:43:37.534Z,77.12
2023-03-16T09:47:37.623Z,89.68
2023-03-16T09:51:37.579Z,41.03
2023-03-16T09:55:37.568Z,39.84
2023-03-16T09:59:37.550Z,72.01
2023-03-16T10:03:37.031Z,117.59
2023-03-16T10:07:36.711Z,120.10
2023-03-16T10:11:36.570Z,62.15
2023-03-16T10:15:36.314Z,72.84
2023-03-16T10:19:36.139Z,60.04
2023-03-16T10:23:36.032Z,77.98
2023-03-16T10:27:36.112Z,72.59
2023-03-16T10:31:35.623Z,57.18
2023-03-16T10:35:35.561Z,60.29
2023-03-16T10:39:35.298Z,58.94
2023-03-16T10:43:35.561Z,77.62
2023-03-16T10:47:35.117Z,117.06
2023-03-16T10:51:35.067Z,142.55
2023-03-16T10:55:34.502Z,163.38
2023-03-16T10:59:34.595Z,184.37
2023-03-16T11:03:35.187Z,198.99
2023-03-16T11:07:33.762Z,202.42
2023-03-16T11:11:33.533Z,209.46
2023-03-16T11:15:33.191Z,219.33
2023-03-16T11:19:32.773Z,207.94
2023-03-16T11:23:32.431Z,219.24
2023-03-16T11:27:32.052Z,232.27
2023-03-16T11:31:31.809Z,237.52
2023-03-16T11:35:31.642Z,247.46
2023-03-16T11:39:31.102Z,252.42
2023-03-16T11:43:31.097Z,240.76
2023-03-16T11:47:30.226Z,223.29
2023-03-16T11:51:30.133Z,209.61
2023-03-16T11:55:29.870Z,204.52
2023-03-16T11:59:29.177Z,204.11
2023-03-16T12:03:28.940Z,194.98
2023-03-16T12:07:28.526Z,196.61
2023-03-16T12:11:28.604Z,188.61
2023-03-16T12:15:28.477Z,196.05
2023-03-16T12:19:27.958Z,190.83
2023-03-16T12:23:28.969Z,183.99
2023-03-16T12:27:27.616Z,179.94
2023-03-16T12:31:27.668Z,192.70
2023-03-16T12:35:28.138Z,225.81
2023-03-16T12:39:27.169Z,216.71
2023-03-16T12:43:27.065Z,221.01
2023-03-16T12:47:27.130Z,219.70
2023-03-16T12:51:26.753Z,196.58
2023-03-16T12:55:26.596Z,192.55
2023-03-16T12:59:26.124Z,176.81
2023-03-16T13:03:25.713Z,172.00
2023-03-16T13:07:25.634Z,172.90
2023-03-16T13:11:24.940Z,168.90
2023-03-16T13:15:24.607Z,171.44
2023-03-16T13:19:24.264Z,168.67
2023-03-16T13:23:24.176Z,178.72
2023-03-16T13:27:23.535Z,154.86
2023-03-16T13:31:23.207Z,149.13
2023-03-16T13:35:22.765Z,145.44
2023-03-16T13:39:22.644Z,147.61
2023-03-16T13:43:22.108Z,150.18
2023-03-16T13:47:21.906Z,152.65
2023-03-16T13:51:22.145Z,151.47
2023-03-16T13:55:21.470Z,155.57
2023-03-16T13:59:21.391Z,157.30
2023-03-16T14:03:21.106Z,151.07
2023-03-16T14:07:21.158Z,158.96
2023-03-16T14:11:21.163Z,154.10
2023-03-16T14:15:20.661Z,153.02
2023-03-16T14:19:20.668Z,179.17
2023-03-16T14:23:20.209Z,168.20
2023-03-16T14:27:19.987Z,164.55
2023-03-16T14:31:19.935Z,174.40
2023-03-16T14:35:19.687Z,165.36
2023-03-16T14:39:19.528Z,166.36
2023-03-16T14:43:19.332Z,167.55
2023-03-16T14:47:19.186Z,166.65
2023-03-16T14:51:18.980Z,167.41
2023-03-16T14:55:19.189Z,172.67
2023-03-16T14:59:18.564Z,166.35
2023-03-16T15:03:18.372Z,168.55
2023-03-16T15:07:18.692Z,177.45
2023-03-16T15:11:18.165Z,179.22
2023-03-16T15:15:17.848Z,186.18
2023-03-16T15:19:17.685Z,172.67
2023-03-16T15:23:17.422Z,186.86
2023-03-16T15:27:17.220Z,181.18
2023-03-16T15:31:16.957Z,178.32
2023-03-16T15:35:16.676Z,176.21
2023-03-16T15:39:16.352Z,174.43
2023-03-16T15:43:16.084Z,173.39
2023-03-16T15:47:15.911Z,164.69
2023-03-16T15:51:15.608Z,164.70
2023-03-16T15:55:15.502Z,163.32
2023-03-16T15:59:15.215Z,154.24
2023-03-16T16:03:15.053Z,147.87
2023-03-16T16:07:14.845Z,149.72
2023-03-16T16:11:14.673Z,147.34
2023-03-16T16:15:14.492Z,144.91
2023-03-16T16:19:14.316Z,153.58
2023-03-16T16:23:14.134Z,155.56
2023-03-16T16:27:13.995Z,150.82
2023-03-16T16:31:13.864Z,146.17
2023-03-16T16:35:13.624Z,152.45
2023-03-16T16:39:13.454Z,153.00
2023-03-16T16:43:13.315Z,147.19
2023-03-16T16:47:13.121Z,147.57
2023-03-16T16:51:12.950Z,150.87
2023-03-16T16:55:12.761Z,152.42
2023-03-16T16:59:12.587Z,148.59
2023-03-16T17:03:12.411Z,158.42
2023-03-16T17:07:12.233Z,162.49
2023-03-16T17:11:12.056Z,158.93
2023-03-16T17:15:11.965Z,155.97
2023-03-16T17:19:11.716Z,158.41
2023-03-16T17:23:11.523Z,161.22
2023-03-16T17:27:11.351Z,162.02
2023-03-16T17:31:11.271Z,155.26
2023-03-16T17:35:11.048Z,158.01
2023-03-16T17:39:10.872Z,159.90
2023-03-16T17:43:10.791Z,153.98
2023-03-16T17:47:10.682Z,147.00
2023-03-16T17:51:10.500Z,149.55
2023-03-16T17:55:10.360Z,159.39
2023-03-16T17:59:10.228Z,166.46
2023-03-16T18:03:09.846Z,143.23
2023-03-16T18:07:09.498Z,139.97
2023-03-16T18:11:09.738Z,139.64
2023-03-16T18:15:08.693Z,145.45
2023-03-16T18:19:08.330Z,142.11
2023-03-16T18:23:07.953Z,147.34
2023-03-16T18:27:09.314Z,148.26
2023-03-16T18:31:07.266Z,157.50
2023-03-16T18:35:06.873Z,165.04
2023-03-16T18:39:06.487Z,173.22
2023-03-16T18:43:06.138Z,159.56
2023-03-16T18:47:05.824Z,154.11
2023-03-16T18:51:05.397Z,162.10
2023-03-16T18:55:05.091Z,168.02
2023-03-16T18:59:04.702Z,161.48
2023-03-16T19:03:04.359Z,172.26
2023-03-16T19:07:03.968Z,163.01
2023-03-16T19:11:03.653Z,162.24
2023-03-16T19:15:03.269Z,161.36
2023-03-16T19:19:02.929Z,180.25
2023-03-16T19:23:02.645Z,168.13
2023-03-16T19:27:02.399Z,164.40
2023-03-16T19:31:02.093Z,158.78
2023-03-16T19:35:01.837Z,152.17
2023-03-16T19:39:01.531Z,153.45
2023-03-16T19:43:01.279Z,144.60
2023-03-16T19:47:01.022Z,139.76
2023-03-16T19:51:00.744Z,154.00
2023-03-16T19:55:00.484Z,159.85
2023-03-16T19:59:00.226Z,161.25
2023-03-16T20:02:59.954Z,153.89
2023-03-16T20:06:59.803Z,142.91
2023-03-16T20:10:59.491Z,133.10
2023-03-16T20:14:59.230Z,134.85
2023-03-16T20:18:58.977Z,138.46
2023-03-16T20:22:58.800Z,132.24
2023-03-16T20:26:58.557Z,134.98
2023-03-16T20:30:58.426Z,134.91
2023-03-16T20:34:58.123Z,118.57
2023-03-16T20:38:57.896Z,126.06
2023-03-16T20:42:57.668Z,118.49
2023-03-16T20:46:57.462Z,141.40
2023-03-16T20:50:57.246Z,147.19
2023-03-16T20:54:57.031Z,132.72
2023-03-16T20:58:56.805Z,137.38
2023-03-16T21:02:56.534Z,140.25
2023-03-16T21:06:56.360Z,149.21
2023-03-16T21:10:56.135Z,142.76
2023-03-16T21:14:55.915Z,150.42
2023-03-16T21:18:55.747Z,150.12
2023-03-16T21:22:55.525Z,147.42
2023-03-16T21:26:55.289Z,142.56
2023-03-16T21:30:55.164Z,141.93
2023-03-16T21:34:54.926Z,135.62
2023-03-16T21:38:54.752Z,143.09
2023-03-16T21:42:54.535Z,136.92
2023-03-16T21:46:54.456Z,141.30
2023-03-16T21:50:54.135Z,127.68
2023-03-16T21:54:53.946Z,121.65
2023-03-16T21:58:53.738Z,114.83
2023-03-16T22:02:53.704Z,105.29
2023-03-16T22:06:53.360Z,101.05
2023-03-16T22:10:53.208Z,101.78
2023-03-16T22:14:52.987Z,115.53
2023-03-16T22:18:52.772Z,111.83
2023-03-16T22:22:52.594Z,97.72
2023-03-16T22:26:52.360Z,95.72
2023-03-16T22:30:52.189Z,92.65
2023-03-16T22:34:52.034Z,83.84
2023-03-16T22:38:51.871Z,91.05
2023-03-16T22:42:51.697Z,91.83
2023-03-16T22:46:51.593Z,87.58
2023-03-16T22:50:51.439Z,74.25
2023-03-16T22:54:51.323Z,71.95
2023-03-16T22:58:51.211Z,74.82
2023-03-16T23:02:51.053Z,85.64
2023-03-16T23:06:50.913Z,86.45
2023-03-16T23:10:50.769Z,66.86
2023-03-16T23:14:50.681Z,68.20
2023-03-16T23:18:50.842Z,68.52
2023-03-16T23:22:50.488Z,72.19
2023-03-16T23:26:50.383Z,54.72
2023-03-16T23:30:50.331Z,54.89
2023-03-16T23:34:50.188Z,54.14
2023-03-16T23:38:50.081Z,74.89
2023-03-16T23:42:50.016Z,59.44
2023-03-16T23:46:49.903Z,70.43
2023-03-16T23:50:49.789Z,48.78
2023-03-16T23:54:49.674Z,51.12
2023-03-16T23:58:49.610Z,49.61
